Time;durP1;ratioP1;P1;durP2;ratioP2;P2;SDS_P1;SDS_P2;PMS_P1;PMS_P2;Temp;Humidity;BMP_temperature;BMP_pressure;BME280_temperature;BME280_humidity;BME280_pressure;Samples;Min_cycle;Max_cycle;Signal;HPM_P1;HPM_P2
2022/07/08 00:01:28;;;;;;;3.77;1.23;;;;;;;15.04;100.00;102868.78;5016942;28;20192;-69
2022/07/08 00:03:53;;;;;;;3.33;1.30;;;;;;;15.11;100.00;102896.75;5017154;28;20275;-70
2022/07/08 00:06:19;;;;;;;4.40;2.20;;;;;;;14.99;100.00;102870.34;5013599;28;20560;-70
2022/07/08 00:08:44;;;;;;;6.40;1.50;;;;;;;14.98;100.00;102864.06;5014590;28;20204;-70
2022/07/08 00:11:10;;;;;;;5.50;1.50;;;;;;;15.01;100.00;102890.72;5015945;28;20596;-70
2022/07/08 00:13:36;;;;;;;6.07;1.50;;;;;;;15.04;100.00;102892.22;5011556;28;20208;-70
2022/07/08 00:16:02;;;;;;;3.50;1.10;;;;;;;15.09;100.00;102895.25;5015665;28;20439;-70
2022/07/08 00:18:27;;;;;;;3.90;1.27;;;;;;;14.62;100.00;102826.81;5017137;28;21320;-71
2022/07/08 00:20:53;;;;;;;4.93;1.37;;;;;;;15.03;100.00;102894.09;5017258;28;20204;-70
2022/07/08 00:23:18;;;;;;;3.53;1.60;;;;;;;14.45;100.00;102809.81;5019610;28;20246;-70
2022/07/08 00:25:43;;;;;;;5.60;1.23;;;;;;;14.86;100.00;102860.09;5015227;28;22726;-70
2022/07/08 00:28:09;;;;;;;4.37;2.27;;;;;;;15.02;100.00;102894.28;5016681;28;20259;-70
2022/07/08 00:30:34;;;;;;;3.37;1.17;;;;;;;14.99;100.00;102890.09;5016083;28;20189;-70
2022/07/08 00:33:00;;;;;;;5.47;1.50;;;;;;;14.85;100.00;102858.41;5013912;28;20227;-69
2022/07/08 00:35:25;;;;;;;5.47;1.30;;;;;;;15.11;100.00;102890.50;5016495;28;20215;-69
2022/07/08 00:37:52;;;;;;;2.53;1.00;;;;;;;15.07;100.00;102891.88;5015372;28;20220;-71
2022/07/08 00:40:17;;;;;;;5.37;1.47;;;;;;;15.00;100.00;102882.81;5018317;28;20184;-70
2022/07/08 00:42:48;;;;;;;4.33;1.20;;;;;;;15.00;100.00;102891.75;5012997;28;20463;-70
2022/07/08 00:45:13;;;;;;;3.93;1.27;;;;;;;14.81;100.00;102865.19;5016292;28;20192;-70
2022/07/08 00:47:38;;;;;;;4.30;1.47;;;;;;;14.96;100.00;102881.50;5012169;28;20475;-69
2022/07/08 00:50:05;;;;;;;4.80;1.27;;;;;;;14.58;100.00;102824.63;5014989;28;20192;-69
2022/07/08 00:52:31;;;;;;;6.20;1.53;;;;;;;15.01;100.00;102887.19;5015330;28;20278;-70
2022/07/08 00:54:57;;;;;;;2.20;1.20;;;;;;;14.57;100.00;102812.97;5014165;28;20534;-70
2022/07/08 00:57:22;;;;;;;3.93;1.10;;;;;;;14.82;100.00;102862.31;5012644;28;21601;-70
2022/07/08 00:59:48;;;;;;;5.47;1.20;;;;;;;15.03;100.00;102877.03;5012867;28;20450;-70
2022/07/08 01:02:13;;;;;;;7.67;1.70;;;;;;;14.88;100.00;102863.47;5018426;28;20208;-71
2022/07/08 01:04:39;;;;;;;3.63;1.43;;;;;;;14.35;100.00;102781.34;5009833;28;20185;-70
2022/07/08 01:07:06;;;;;;;3.60;1.20;;;;;;;14.65;100.00;102836.41;5014979;28;20193;-70
2022/07/08 01:09:31;;;;;;;4.53;1.30;;;;;;;14.63;100.00;102838.44;5013829;28;20208;-71
2022/07/08 01:11:57;;;;;;;4.77;1.17;;;;;;;15.01;100.00;102896.13;5014017;28;20512;-71
2022/07/08 01:14:23;;;;;;;4.57;1.03;;;;;;;14.97;100.00;102899.38;5014693;28;20176;-71
2022/07/08 01:16:48;;;;;;;4.23;1.73;;;;;;;15.02;100.00;102899.69;5010853;28;20199;-70
2022/07/08 01:19:14;;;;;;;5.30;1.67;;;;;;;14.97;100.00;102900.22;5016070;28;20440;-70
2022/07/08 01:21:39;;;;;;;6.07;1.33;;;;;;;14.84;100.00;102886.44;5013699;28;20193;-70
2022/07/08 01:24:05;;;;;;;4.53;1.00;;;;;;;14.90;100.00;102883.88;5014171;28;20192;-70
2022/07/08 01:26:31;;;;;;;4.33;1.33;;;;;;;14.89;100.00;102898.41;5015762;28;20184;-70
2022/07/08 01:28:57;;;;;;;4.83;1.30;;;;;;;14.68;100.00;102847.69;5014678;28;20212;-70
2022/07/08 01:31:22;;;;;;;6.13;1.53;;;;;;;14.81;100.00;102866.03;5012693;28;20192;-70
2022/07/08 01:33:47;;;;;;;5.57;1.10;;;;;;;14.81;100.00;102887.66;5011343;28;20459;-71
2022/07/08 01:36:13;;;;;;;5.00;1.30;;;;;;;14.43;100.00;102830.72;5014271;28;20642;-70
2022/07/08 01:38:38;;;;;;;4.00;0.97;;;;;;;14.81;100.00;102863.34;5014883;28;20183;-71
2022/07/08 01:41:05;;;;;;;3.90;1.03;;;;;;;14.97;100.00;102889.41;5013399;28;20207;-70
2022/07/08 01:43:30;;;;;;;9.50;2.20;;;;;;;14.83;100.00;102888.31;5014005;28;20211;-69
2022/07/08 01:45:56;;;;;;;4.80;1.40;;;;;;;14.55;100.00;102871.75;5012709;28;20816;-69
2022/07/08 01:48:21;;;;;;;3.00;1.00;;;;;;;14.69;100.00;102895.31;5014382;28;20214;-71
2022/07/08 01:50:46;;;;;;;7.00;1.80;;;;;;;14.66;100.00;102868.63;5011852;28;20181;-70
2022/07/08 01:53:12;;;;;;;4.80;1.40;;;;;;;14.67;100.00;102883.84;5016288;28;20283;-70
2022/07/08 01:55:38;;;;;;;3.80;1.40;;;;;;;14.56;100.00;102883.38;5012451;28;20192;-70
2022/07/08 01:58:03;;;;;;;6.23;1.70;;;;;;;14.64;100.00;102867.97;5015484;28;20184;-71
2022/07/08 02:00:28;;;;;;;4.10;1.00;;;;;;;14.34;100.00;102850.69;5010837;28;20196;-70
2022/07/08 02:02:54;;;;;;;4.60;1.20;;;;;;;14.55;100.00;102882.56;5013602;28;20745;-70
2022/07/08 02:05:19;;;;;;;6.33;1.30;;;;;;;14.01;100.00;102802.25;5017009;28;20212;-69
2022/07/08 02:07:45;;;;;;;3.70;1.13;;;;;;;14.23;100.00;102880.75;5011038;28;20217;-70
2022/07/08 02:10:11;;;;;;;6.10;1.30;;;;;;;14.40;100.00;102911.25;5012642;28;20189;-71
2022/07/08 02:12:36;;;;;;;3.50;1.03;;;;;;;14.09;100.00;102847.25;5010017;28;20204;-70
2022/07/08 02:15:04;;;;;;;3.30;1.23;;;;;;;14.49;100.00;102910.19;5014365;28;20578;-70
2022/07/08 02:17:35;;;;;;;4.07;1.30;;;;;;;14.46;100.00;102907.84;5014188;28;20184;-70
2022/07/08 02:20:01;;;;;;;3.77;1.13;;;;;;;14.30;100.00;102864.72;5009153;28;20434;-70
2022/07/08 02:22:27;;;;;;;7.40;1.37;;;;;;;14.52;100.00;102914.44;5012372;28;20598;-71
2022/07/08 02:24:53;;;;;;;3.60;0.90;;;;;;;14.32;100.00;102878.88;5017359;28;20556;-72
2022/07/08 02:27:18;;;;;;;2.77;1.00;;;;;;;14.52;100.00;102915.28;5018018;28;20695;-71
2022/07/08 02:29:44;;;;;;;4.10;1.20;;;;;;;14.47;100.00;102914.94;5015768;28;20518;-70
2022/07/08 02:32:10;;;;;;;4.73;1.30;;;;;;;14.19;100.00;102880.25;5016810;28;20228;-71
2022/07/08 02:34:36;;;;;;;5.53;1.30;;;;;;;14.31;100.00;102910.44;5013372;28;20435;-70
2022/07/08 02:37:01;;;;;;;4.00;1.50;;;;;;;14.42;100.00;102911.91;5014647;28;20208;-69
2022/07/08 02:39:27;;;;;;;6.10;1.50;;;;;;;14.25;100.00;102924.63;5010874;28;20180;-70
2022/07/08 02:41:52;;;;;;;3.43;1.30;;;;;;;13.92;100.00;102842.91;5010305;28;20967;-70
2022/07/08 02:44:18;;;;;;;4.27;1.30;;;;;;;14.50;100.00;102922.69;5011150;28;22188;-70
2022/07/08 02:46:45;;;;;;;4.07;1.10;;;;;;;14.38;100.00;102926.78;5008688;28;20598;-70
2022/07/08 02:49:11;;;;;;;5.40;1.40;;;;;;;13.93;100.00;102849.97;5010174;28;20300;-71
2022/07/08 02:51:37;;;;;;;2.40;1.00;;;;;;;13.97;100.00;102870.19;5011834;28;20522;-70
2022/07/08 02:54:04;;;;;;;4.03;1.30;;;;;;;14.27;100.00;102921.75;5012358;28;20192;-71
2022/07/08 02:56:30;;;;;;;2.83;0.97;;;;;;;14.21;100.00;102899.84;5011156;28;20975;-71
2022/07/08 02:58:55;;;;;;;4.00;1.23;;;;;;;14.19;100.00;102909.13;5014394;28;20440;-70
2022/07/08 03:01:23;;;;;;;4.90;1.40;;;;;;;14.33;100.00;102937.25;5009579;28;20471;-69
2022/07/08 03:03:49;;;;;;;3.57;1.23;;;;;;;14.19;100.00;102939.63;5011057;28;20258;-69
2022/07/08 03:06:15;;;;;;;3.73;1.20;;;;;;;14.05;100.00;102913.34;5012313;28;20812;-69
2022/07/08 03:08:40;;;;;;;6.27;1.50;;;;;;;13.82;100.00;102874.59;5014549;28;20734;-71
2022/07/08 03:11:06;;;;;;;2.80;1.40;;;;;;;14.09;100.00;102914.72;5011229;28;20732;-70
2022/07/08 03:13:32;;;;;;;4.97;1.40;;;;;;;14.08;100.00;102923.81;5012277;28;20197;-69
2022/07/08 03:15:58;;;;;;;3.70;1.57;;;;;;;14.00;100.00;102895.00;5011072;28;20455;-71
2022/07/08 03:18:23;;;;;;;5.63;1.27;;;;;;;14.19;100.00;102936.09;5011980;28;20708;-70
2022/07/08 03:20:49;;;;;;;6.20;1.40;;;;;;;14.10;100.00;102904.75;5013290;28;20266;-70
2022/07/08 03:23:14;;;;;;;3.77;1.20;;;;;;;13.94;100.00;102882.19;5014451;28;20622;-70
2022/07/08 03:25:40;;;;;;;2.60;1.17;;;;;;;14.05;100.00;102937.63;5015864;28;20268;-70
2022/07/08 03:28:05;;;;;;;4.60;0.90;;;;;;;13.66;100.00;102859.31;5013832;28;20224;-71
2022/07/08 03:30:30;;;;;;;8.30;1.37;;;;;;;14.26;100.00;102942.50;5016471;28;20235;-71
2022/07/08 03:32:56;;;;;;;3.57;1.30;;;;;;;13.79;100.00;102881.19;5010100;28;20592;-70
2022/07/08 03:35:22;;;;;;;4.67;1.33;;;;;;;14.18;100.00;102945.22;5014166;28;20257;-70
2022/07/08 03:37:50;;;;;;;4.77;1.23;;;;;;;14.08;100.00;102937.28;5013502;28;20184;-70
2022/07/08 03:43:00;;;;;;;4.17;1.10;;;;;;;14.10;100.00;102948.78;5011527;28;20612;-70
2022/07/08 03:45:25;;;;;;;7.67;2.00;;;;;;;13.91;100.00;102897.84;5013410;28;20539;-70
2022/07/08 03:47:51;;;;;;;6.17;1.57;;;;;;;14.25;100.00;102933.56;5010426;28;20209;-70
2022/07/08 03:50:17;;;;;;;3.67;0.93;;;;;;;14.17;100.00;102940.81;5014500;28;20275;-72
2022/07/08 03:52:46;;;;;;;8.70;2.27;;;;;;;14.18;100.00;102940.66;5015613;28;20468;-70
2022/07/08 03:55:12;;;;;;;4.13;1.20;;;;;;;13.79;100.00;102873.94;5013924;28;20447;-72
2022/07/08 03:57:37;;;;;;;4.03;1.20;;;;;;;14.22;100.00;102939.28;5016389;28;20447;-72
2022/07/08 04:00:07;;;;;;;3.33;1.10;;;;;;;13.82;100.00;102872.75;5009203;28;20706;-70
2022/07/08 04:02:33;;;;;;;5.40;1.77;;;;;;;14.52;100.00;102944.16;5011773;28;20215;-72
2022/07/08 04:04:58;;;;;;;2.50;1.47;;;;;;;14.16;100.00;102895.97;5014110;28;20439;-71
2022/07/08 04:07:23;;;;;;;4.00;1.27;;;;;;;14.43;100.00;102949.53;5014147;28;20184;-71
2022/07/08 04:09:49;;;;;;;6.00;1.70;;;;;;;14.24;100.00;102939.13;5017137;28;20262;-71
2022/07/08 04:12:14;;;;;;;5.80;1.27;;;;;;;14.37;100.00;102957.50;5010282;28;20331;-72
2022/07/08 04:14:39;;;;;;;6.50;1.63;;;;;;;14.44;100.00;102951.22;5016985;28;20615;-70
2022/07/08 04:17:05;;;;;;;4.40;1.50;;;;;;;14.46;100.00;102948.34;5011167;28;20271;-71
2022/07/08 04:19:30;;;;;;;4.43;1.70;;;;;;;14.14;100.00;102887.19;5015862;28;20661;-71
2022/07/08 04:21:56;;;;;;;9.00;1.20;;;;;;;14.31;100.00;102915.81;5019531;28;20271;-71
2022/07/08 04:24:21;;;;;;;4.83;1.43;;;;;;;14.53;100.00;102943.16;5020960;28;20219;-71
2022/07/08 04:26:47;;;;;;;6.03;1.43;;;;;;;14.43;100.00;102935.19;5009511;28;20203;-71
2022/07/08 04:29:12;;;;;;;5.83;1.20;;;;;;;14.28;100.00;102932.38;5017262;28;20212;-70
2022/07/08 04:31:38;;;;;;;4.10;1.40;;;;;;;14.74;100.00;102959.59;5014607;28;20181;-71
2022/07/08 04:34:03;;;;;;;3.73;1.73;;;;;;;14.80;100.00;102950.78;5010435;28;20853;-71
2022/07/08 04:36:29;;;;;;;6.73;1.70;;;;;;;14.61;100.00;102921.50;5004820;28;20694;-72
2022/07/08 04:38:54;;;;;;;4.47;1.47;;;;;;;14.85;100.00;102961.09;5017377;28;20184;-72
2022/07/08 04:41:19;;;;;;;4.03;1.57;;;;;;;14.83;100.00;102946.91;5010401;28;20732;-70
2022/07/08 04:43:45;;;;;;;4.50;1.10;;;;;;;14.86;100.00;102965.47;5010230;28;20232;-71
2022/07/08 04:46:12;;;;;;;5.50;1.70;;;;;;;14.58;100.00;102913.75;5015602;28;20216;-72
2022/07/08 04:48:38;;;;;;;5.83;1.80;;;;;;;14.79;100.00;102954.53;5013921;28;20664;-71
2022/07/08 04:51:03;;;;;;;8.20;1.33;;;;;;;14.92;100.00;102967.47;5011653;28;20470;-72
2022/07/08 04:53:29;;;;;;;4.63;1.60;;;;;;;15.03;100.00;102972.47;5008269;28;20626;-71
2022/07/08 04:55:54;;;;;;;6.50;1.80;;;;;;;14.88;100.00;102939.97;5008662;28;20189;-72
2022/07/08 04:58:20;;;;;;;5.83;2.10;;;;;;;15.15;100.00;102973.75;5012835;28;20255;-70
2022/07/08 05:00:45;;;;;;;5.47;1.43;;;;;;;15.29;100.00;102964.06;5008463;28;20664;-71
2022/07/08 05:03:11;;;;;;;6.23;1.50;;;;;;;15.32;100.00;102971.81;5009879;28;20312;-71
2022/07/08 05:05:37;;;;;;;4.63;1.43;;;;;;;15.08;100.00;102950.34;5006819;28;20279;-71
2022/07/08 05:08:03;;;;;;;4.73;1.50;;;;;;;15.01;100.00;102933.13;5008930;28;20717;-72
2022/07/08 05:10:28;;;;;;;9.93;1.80;;;;;;;14.71;100.00;102897.00;5011651;28;20191;-72
2022/07/08 05:12:56;;;;;;;5.60;1.40;;;;;;;15.13;100.00;102937.97;5002629;28;20665;-71
2022/07/08 05:15:23;;;;;;;10.70;2.20;;;;;;;15.10;100.00;102922.13;5012048;28;20303;-71
2022/07/08 05:17:49;;;;;;;3.00;1.47;;;;;;;15.35;100.00;102955.22;5014147;28;21196;-70
2022/07/08 05:20:15;;;;;;;3.83;1.50;;;;;;;15.43;100.00;102967.84;5006886;28;20485;-70
2022/07/08 05:22:40;;;;;;;6.73;1.30;;;;;;;15.59;100.00;102980.41;5009653;28;20209;-70
2022/07/08 05:25:08;;;;;;;11.40;2.27;;;;;;;15.59;100.00;102981.28;5010581;28;20452;-70
2022/07/08 05:27:33;;;;;;;5.17;1.50;;;;;;;15.48;100.00;102954.66;5008039;28;20724;-70
2022/07/08 05:29:59;;;;;;;6.20;1.50;;;;;;;15.58;100.00;102978.75;5010597;28;20439;-71
2022/07/08 05:32:25;;;;;;;7.87;1.87;;;;;;;15.59;100.00;102980.41;5008209;28;20605;-71
2022/07/08 05:34:50;;;;;;;3.57;1.30;;;;;;;15.66;100.00;102964.31;5006222;28;20199;-72
2022/07/08 05:37:16;;;;;;;3.87;1.23;;;;;;;15.44;100.00;102920.03;5010459;28;20997;-71
2022/07/08 05:39:42;;;;;;;5.40;1.73;;;;;;;15.74;100.00;102981.38;5014711;28;20255;-71
2022/07/08 05:42:09;;;;;;;4.63;1.40;;;;;;;15.36;100.00;102897.44;5009469;28;20221;-71
2022/07/08 05:44:36;;;;;;;6.17;1.53;;;;;;;15.68;100.00;102960.44;5014839;28;20809;-71
2022/07/08 05:47:07;;;;;;;5.40;1.70;;;;;;;15.62;100.00;102935.94;5010756;28;20889;-70
2022/07/08 05:49:33;;;;;;;5.23;1.37;;;;;;;15.67;100.00;102941.66;5012850;28;21022;-70
2022/07/08 05:51:59;;;;;;;5.90;1.77;;;;;;;15.98;100.00;102982.19;5013902;28;20561;-71
2022/07/08 05:54:24;;;;;;;7.60;1.73;;;;;;;15.66;100.00;102929.16;5014674;28;20518;-71
2022/07/08 05:56:49;;;;;;;9.00;1.57;;;;;;;15.94;100.00;102980.84;5016056;28;20188;-71
2022/07/08 05:59:15;;;;;;;6.60;1.70;;;;;;;15.86;100.00;102976.38;5014131;28;20649;-70
2022/07/08 06:01:40;;;;;;;6.90;2.30;;;;;;;15.94;100.00;102983.56;5012321;28;20204;-71
2022/07/08 06:04:06;;;;;;;6.53;1.80;;;;;;;15.78;100.00;102944.78;5011074;28;20189;-70
2022/07/08 06:06:31;;;;;;;6.87;2.27;;;;;;;15.86;100.00;102998.00;5004802;28;20181;-70
2022/07/08 06:08:56;;;;;;;7.43;2.07;;;;;;;15.72;100.00;102947.41;5009808;28;20217;-70
2022/07/08 06:11:22;;;;;;;6.90;1.80;;;;;;;16.06;100.00;102981.28;5010236;28;20188;-69
2022/07/08 06:13:47;;;;;;;3.87;1.63;;;;;;;16.17;100.00;102997.91;5008603;28;20187;-71
2022/07/08 06:16:13;;;;;;;4.50;1.50;;;;;;;16.27;100.00;102997.66;5008339;28;20220;-69
2022/07/08 06:18:38;;;;;;;6.07;2.10;;;;;;;16.28;100.00;102994.75;5005542;28;20216;-69
2022/07/08 06:21:04;;;;;;;7.90;1.90;;;;;;;16.29;100.00;102992.91;4999404;28;20204;-70
2022/07/08 06:23:29;;;;;;;7.40;1.70;;;;;;;16.26;100.00;103010.34;4993459;28;20271;-70
2022/07/08 06:25:55;;;;;;;4.20;1.73;;;;;;;15.97;100.00;102950.75;5008639;28;20181;-70
2022/07/08 06:28:20;;;;;;;7.87;2.10;;;;;;;15.53;100.00;102883.78;5002941;28;20212;-69
2022/07/08 06:30:46;;;;;;;4.77;1.57;;;;;;;16.25;100.00;103024.06;5001674;28;20192;-68
2022/07/08 06:33:11;;;;;;;5.33;1.27;;;;;;;16.01;100.00;102962.88;5002154;28;20216;-70
2022/07/08 06:35:37;;;;;;;5.43;2.00;;;;;;;16.38;100.00;103018.03;5010132;28;20570;-69
2022/07/08 06:38:03;;;;;;;4.30;1.60;;;;;;;16.25;100.00;103002.41;5002234;28;20180;-70
2022/07/08 06:40:29;;;;;;;6.60;1.23;;;;;;;16.32;100.00;103018.78;4998048;28;20211;-70
2022/07/08 06:42:54;;;;;;;5.00;1.70;;;;;;;16.24;100.00;103027.81;5002187;28;20972;-69
2022/07/08 06:45:20;;;;;;;6.73;1.33;;;;;;;16.25;100.00;103003.25;5003093;28;20211;-70
2022/07/08 06:47:45;;;;;;;6.40;1.40;;;;;;;16.35;100.00;103015.69;5000693;28;20677;-68
2022/07/08 06:50:11;;;;;;;5.00;1.40;;;;;;;16.32;100.00;103019.63;5007481;28;20224;-70
2022/07/08 06:52:37;;;;;;;6.53;1.47;;;;;;;16.25;100.00;103005.09;5003402;28;20201;-69
2022/07/08 06:55:03;;;;;;;4.83;1.43;;;;;;;16.45;100.00;103027.09;4998897;28;20187;-70
2022/07/08 06:57:29;;;;;;;4.30;1.80;;;;;;;16.38;100.00;102999.06;5002114;28;20189;-69
2022/07/08 06:59:54;;;;;;;4.30;1.40;;;;;;;16.46;100.00;103010.66;5003635;28;20450;-69
2022/07/08 07:02:20;;;;;;;6.83;1.87;;;;;;;16.54;100.00;103022.44;5011720;28;20204;-69
2022/07/08 07:04:45;;;;;;;9.30;2.57;;;;;;;16.45;100.00;103032.50;5002631;28;20212;-69
2022/07/08 07:07:11;;;;;;;5.10;2.10;;;;;;;16.38;100.00;103024.28;5015587;28;20274;-71
2022/07/08 07:09:38;;;;;;;8.40;2.33;;;;;;;16.34;100.00;103022.94;5012758;28;20200;-69
2022/07/08 07:12:05;;;;;;;6.03;1.33;;;;;;;15.93;100.00;102961.06;5010903;28;20212;-70
2022/07/08 07:14:30;;;;;;;3.53;1.40;;;;;;;16.36;100.00;103042.56;5012299;28;20430;-70
2022/07/08 07:16:56;;;;;;;4.57;1.60;;;;;;;16.53;100.00;103047.84;5006133;28;20492;-70
2022/07/08 07:19:21;;;;;;;5.33;1.43;;;;;;;16.43;100.00;103038.13;5005412;28;20177;-70
2022/07/08 07:21:46;;;;;;;2.93;1.07;;;;;;;16.08;100.00;102976.50;5005223;28;20209;-70
2022/07/08 07:24:12;;;;;;;6.17;2.57;;;;;;;16.24;100.00;103006.97;5015049;28;20677;-70
2022/07/08 07:26:37;;;;;;;4.23;1.40;;;;;;;16.52;100.00;103055.13;5016784;28;20188;-71
2022/07/08 07:29:03;;;;;;;6.20;1.80;;;;;;;16.57;100.00;103060.00;5006164;28;26862;-69
2022/07/08 07:31:29;;;;;;;3.83;1.53;;;;;;;16.57;100.00;103051.84;5009333;28;20259;-70
2022/07/08 07:33:54;;;;;;;6.17;1.90;;;;;;;16.65;100.00;103062.63;5016794;28;20948;-70
2022/07/08 07:36:20;;;;;;;3.10;1.23;;;;;;;16.75;100.00;103056.91;5017188;28;20263;-70
2022/07/08 07:38:45;;;;;;;6.60;1.57;;;;;;;16.15;100.00;102982.88;5017941;28;20685;-70
2022/07/08 07:41:11;;;;;;;6.20;1.43;;;;;;;16.43;100.00;103054.38;5021420;28;20613;-70
2022/07/08 07:43:36;;;;;;;4.10;1.40;;;;;;;16.33;100.00;103052.94;5022200;28;20240;-70
2022/07/08 07:46:01;;;;;;;4.37;1.30;;;;;;;16.32;100.00;103079.19;5015267;28;20567;-69
2022/07/08 07:48:27;;;;;;;6.30;1.67;;;;;;;16.32;100.00;103081.06;5018564;28;20267;-71
2022/07/08 07:50:52;;;;;;;3.73;1.43;;;;;;;15.97;100.00;103019.25;5020908;28;20594;-70
2022/07/08 07:53:18;;;;;;;3.93;1.23;;;;;;;16.07;100.00;103050.63;5017626;28;20213;-70
2022/07/08 07:55:43;;;;;;;6.77;1.70;;;;;;;15.57;100.00;102996.84;5020114;28;20729;-69
2022/07/08 07:58:09;;;;;;;3.70;1.63;;;;;;;16.14;100.00;103065.09;5017746;28;20645;-69
2022/07/08 08:00:35;;;;;;;4.67;1.40;;;;;;;16.07;100.00;103051.47;5032516;28;20215;-70
2022/07/08 08:03:00;;;;;;;8.13;2.00;;;;;;;16.28;100.00;103085.97;5014790;28;20213;-70
2022/07/08 08:05:25;;;;;;;9.30;2.40;;;;;;;16.30;100.00;103092.06;5003053;28;20180;-70
2022/07/08 08:07:51;;;;;;;5.53;1.50;;;;;;;16.16;100.00;103063.91;5019006;28;20689;-70
2022/07/08 08:10:16;;;;;;;5.87;1.30;;;;;;;16.33;100.00;103097.13;5012703;28;20267;-70
2022/07/08 08:12:42;;;;;;;2.80;1.27;;;;;;;16.32;100.00;103095.44;5020636;28;20212;-69
2022/07/08 08:15:08;;;;;;;4.17;1.00;;;;;;;16.44;100.00;103101.25;5010613;28;20193;-70
2022/07/08 08:17:41;;;;;;;3.80;1.40;;;;;;;16.47;100.00;103093.59;5019929;28;20557;-70
2022/07/08 08:20:08;;;;;;;5.73;1.53;;;;;;;16.09;100.00;103033.19;5018201;28;20192;-70
2022/07/08 08:22:34;;;;;;;5.83;1.63;;;;;;;16.53;100.00;103093.91;4998470;28;20471;-69
2022/07/08 08:24:59;;;;;;;3.57;1.50;;;;;;;16.63;100.00;103105.31;5005520;28;20459;-69
2022/07/08 08:27:25;;;;;;;7.20;1.70;;;;;;;16.60;100.00;103094.84;5011927;28;20192;-69
2022/07/08 08:29:50;;;;;;;4.27;1.57;;;;;;;16.64;100.00;103101.59;5011979;28;20581;-70
2022/07/08 08:32:16;;;;;;;3.17;1.40;;;;;;;16.74;100.00;103104.84;5006530;28;22604;-69
2022/07/08 08:34:41;;;;;;;5.97;1.93;;;;;;;16.66;100.00;103081.41;5008978;28;20877;-69
2022/07/08 08:37:07;;;;;;;6.20;1.67;;;;;;;16.56;100.00;103069.97;5007608;28;20212;-70
2022/07/08 08:39:33;;;;;;;6.20;1.40;;;;;;;16.26;100.00;103004.09;5004102;28;20200;-69
2022/07/08 08:41:58;;;;;;;5.17;1.30;;;;;;;16.65;100.00;103060.75;5002051;28;21048;-69
2022/07/08 08:44:24;;;;;;;3.60;1.00;;;;;;;16.78;100.00;103083.69;5004585;28;20483;-70
2022/07/08 08:46:52;;;;;;;5.10;1.67;;;;;;;16.95;100.00;103093.31;5007234;28;20192;-71
2022/07/08 08:49:19;;;;;;;2.60;1.23;;;;;;;17.01;100.00;103092.59;5013840;28;21191;-69
2022/07/08 08:51:49;;;;;;;4.43;1.83;;;;;;;16.93;100.00;103081.84;5007117;28;20810;-70
2022/07/08 08:54:18;;;;;;;5.77;1.50;;;;;;;16.34;100.00;102982.34;5010253;28;20463;-69
2022/07/08 08:56:47;;;;;;;2.73;1.57;;;;;;;16.89;100.00;103054.28;5011226;28;20435;-69
2022/07/08 08:59:15;;;;;;;4.30;1.73;;;;;;;17.23;100.00;103082.66;4996573;28;20447;-70
2022/07/08 09:01:41;;;;;;;4.80;1.57;;;;;;;17.10;100.00;103087.91;4995038;28;20448;-69
2022/07/08 09:04:13;;;;;;;5.63;1.77;;;;;;;17.08;100.00;103092.69;5000020;28;20549;-69
2022/07/08 09:06:39;;;;;;;4.17;1.30;;;;;;;17.11;100.00;103089.59;4998094;28;20464;-69
2022/07/08 09:09:05;;;;;;;3.50;1.30;;;;;;;17.11;100.00;103087.72;4994433;28;20550;-69
2022/07/08 09:11:34;;;;;;;8.27;2.63;;;;;;;17.00;100.00;103079.22;5022457;28;20432;-70
2022/07/08 09:14:20;;;;;;;5.33;1.63;;;;;;;17.02;100.00;103099.69;5004418;28;20443;-70
2022/07/08 09:17:09;;;;;;;7.30;2.03;;;;;;;16.99;100.00;103091.94;5006493;28;20915;-70
2022/07/08 09:19:36;;;;;;;8.80;1.83;;;;;;;16.90;100.00;103072.22;4996039;28;20464;-69
2022/07/08 09:22:02;;;;;;;8.57;1.80;;;;;;;17.11;100.00;103095.00;5004513;28;20495;-70
2022/07/08 09:24:27;;;;;;;4.40;1.40;;;;;;;17.08;100.00;103101.66;5006287;28;20945;-71
2022/07/08 09:26:57;;;;;;;7.13;1.63;;;;;;;17.10;100.00;103090.63;5014195;28;20254;-70
2022/07/08 09:29:22;;;;;;;6.67;1.40;;;;;;;16.96;100.00;103050.81;5011321;28;26853;-69
2022/07/08 09:31:48;;;;;;;6.40;1.57;;;;;;;17.13;100.00;103080.25;5015108;28;20960;-69
2022/07/08 09:34:16;;;;;;;8.03;1.67;;;;;;;17.13;100.00;103090.25;5008344;28;20192;-68
2022/07/08 09:36:45;;;;;;;6.63;2.07;;;;;;;17.18;100.00;103093.22;5015023;28;20465;-69
2022/07/08 09:39:31;;;;;;;5.10;1.77;;;;;;;17.07;100.00;103104.56;5005964;28;20824;-69
2022/07/08 09:41:57;;;;;;;9.77;2.60;;;;;;;17.02;100.00;103098.84;5008288;28;20511;-71
2022/07/08 09:44:25;;;;;;;7.10;2.40;;;;;;;17.12;100.00;103083.13;5007668;28;20530;-69
2022/07/08 09:46:50;;;;;;;4.10;1.30;;;;;;;16.92;100.00;103050.31;5016710;28;20213;-70
2022/07/08 09:49:34;;;;;;;6.27;1.83;;;;;;;16.76;100.00;103008.00;5017256;28;21005;-69
2022/07/08 09:52:00;;;;;;;7.33;1.83;;;;;;;17.40;100.00;103096.84;5017220;28;20697;-70
2022/07/08 09:54:27;;;;;;;4.63;1.60;;;;;;;17.23;100.00;103058.25;5019132;28;20439;-70
2022/07/08 09:57:00;;;;;;;7.20;1.90;;;;;;;17.52;100.00;103068.19;5016966;28;20447;-69
2022/07/08 09:59:26;;;;;;;6.60;2.67;;;;;;;17.70;100.00;103077.78;5017198;22;20506;-71
2022/07/08 10:01:52;;;;;;;5.60;1.93;;;;;;;17.74;100.00;103051.97;4998155;28;20844;-72
2022/07/08 10:04:18;;;;;;;6.87;1.90;;;;;;;18.07;100.00;103069.44;5002049;28;20424;-72
2022/07/08 10:06:44;;;;;;;7.17;2.27;;;;;;;17.95;100.00;103059.28;5003008;28;20193;-72
2022/07/08 10:09:09;;;;;;;5.60;1.93;;;;;;;17.78;100.00;103007.97;5002118;28;20977;-72
2022/07/08 10:11:38;;;;;;;3.87;1.83;;;;;;;18.13;100.00;103037.94;5001775;28;20196;-72
2022/07/08 10:14:05;;;;;;;8.53;2.30;;;;;;;18.38;100.00;103032.94;4999216;28;20788;-71
2022/07/08 10:16:33;;;;;;;3.50;1.53;;;;;;;18.19;100.00;103010.00;5002289;28;20482;-71
2022/07/08 10:19:01;;;;;;;5.17;2.03;;;;;;;18.27;100.00;103047.88;4995098;28;20542;-71
2022/07/08 10:21:29;;;;;;;9.30;1.70;;;;;;;18.20;100.00;103036.13;4981987;28;20857;-71
2022/07/08 10:23:55;;;;;;;4.80;1.60;;;;;;;18.45;100.00;103006.63;4998900;28;20488;-71
2022/07/08 10:26:38;;;;;;;4.67;1.77;;;;;;;18.77;100.00;103044.28;5000155;28;20472;-72
2022/07/08 10:29:08;;;;;;;6.97;1.90;;;;;;;18.95;100.00;103050.06;4997778;28;20239;-72
2022/07/08 10:31:50;;;;;;;3.70;1.80;;;;;;;18.75;100.00;103044.50;4997171;28;20494;-73
2022/07/08 10:34:21;;;;;;;4.70;1.87;;;;;;;18.88;100.00;103057.31;5000071;28;20501;-72
2022/07/08 10:36:53;;;;;;;5.67;1.80;;;;;;;18.83;100.00;103046.19;5004136;28;21452;-72
2022/07/08 10:39:37;;;;;;;5.70;1.90;;;;;;;18.27;100.00;102936.50;4990359;28;20502;-72
2022/07/08 10:42:05;;;;;;;3.97;1.53;;;;;;;19.04;100.00;103046.13;4986973;28;20539;-72
2022/07/08 10:44:42;;;;;;;5.73;2.00;;;;;;;19.38;100.00;103042.50;5004289;28;20792;-72
2022/07/08 10:47:09;;;;;;;2.70;1.27;;;;;;;19.30;100.00;103041.84;4999956;28;20444;-73
2022/07/08 10:49:45;;;;;;;2.47;1.47;;;;;;;18.99;100.00;102985.22;5002218;28;20476;-72
2022/07/08 10:52:12;;;;;;;3.57;1.30;;;;;;;19.35;100.00;103025.72;4984114;28;20455;-73
2022/07/08 10:54:38;;;;;;;3.90;1.60;;;;;;;19.51;100.00;103051.75;4999264;28;20472;-72
2022/07/08 10:57:15;;;;;;;2.53;1.23;;;;;;;19.59;100.00;103043.41;4999650;28;20452;-73
2022/07/08 10:59:41;;;;;;;3.83;1.40;;;;;;;19.60;100.00;103037.72;4998157;28;20460;-73
2022/07/08 11:02:09;;;;;;;6.63;2.10;;;;;;;19.51;100.00;103019.91;5003571;28;20424;-73
2022/07/08 11:04:35;;;;;;;6.30;1.60;;;;;;;19.73;100.00;103036.97;5003722;28;20208;-72
2022/07/08 11:07:25;;;;;;;8.60;2.13;;;;;;;19.77;100.00;103040.13;5002562;28;20493;-72
2022/07/08 11:09:54;;;;;;;4.13;1.30;;;;;;;19.69;100.00;103043.84;5002626;28;20216;-73
2022/07/08 11:12:22;;;;;;;5.67;2.53;;;;;;;19.66;100.00;103040.72;5002127;28;20929;-73
2022/07/08 11:14:49;;;;;;;4.87;1.43;;;;;;;19.92;100.00;103032.59;5004141;28;20455;-73
2022/07/08 11:17:19;;;;;;;5.30;1.53;;;;;;;19.89;100.00;103038.44;5003041;28;20463;-71